桃園國際機場 - ATIS

METAR RCTP 201430Z 04008KT 9999 FEW020 SCT170 20/16 Q1020 NOSIG RMK A3013(K)=

站台狀態:Online
最後更新:2018-10-20 22:30:03